sensor_id;sensor_type;location;lat;lon;timestamp;P1;durP1;ratioP1;P2;durP2;ratioP2
77736;SDS011;66903;59.926;30.404;2023-11-21T00:03:26;4.60;;;1.80;;
77736;SDS011;66903;59.926;30.404;2023-11-21T00:08:38;3.90;;;1.70;;
77736;SDS011;66903;59.926;30.404;2023-11-21T00:13:49;4.57;;;1.80;;
77736;SDS011;66903;59.926;30.404;2023-11-21T00:19:00;3.78;;;1.80;;
77736;SDS011;66903;59.926;30.404;2023-11-21T00:24:11;4.63;;;1.92;;
77736;SDS011;66903;59.926;30.404;2023-11-21T00:34:34;6.25;;;2.25;;
77736;SDS011;66903;59.926;30.404;2023-11-21T00:39:45;5.10;;;2.05;;
77736;SDS011;66903;59.926;30.404;2023-11-21T00:44:55;4.63;;;2.13;;
77736;SDS011;66903;59.926;30.404;2023-11-21T00:50:06;4.55;;;2.00;;
77736;SDS011;66903;59.926;30.404;2023-11-21T00:55:17;5.10;;;2.42;;
77736;SDS011;66903;59.926;30.404;2023-11-21T01:00:29;5.50;;;2.53;;
77736;SDS011;66903;59.926;30.404;2023-11-21T01:05:40;4.80;;;2.03;;
77736;SDS011;66903;59.926;30.404;2023-11-21T01:10:51;5.00;;;2.00;;
77736;SDS011;66903;59.926;30.404;2023-11-21T01:16:01;5.55;;;2.72;;
77736;SDS011;66903;59.926;30.404;2023-11-21T01:21:12;5.35;;;2.22;;
77736;SDS011;66903;59.926;30.404;2023-11-21T01:26:23;5.40;;;2.63;;
77736;SDS011;66903;59.926;30.404;2023-11-21T01:31:34;6.28;;;2.63;;
77736;SDS011;66903;59.926;30.404;2023-11-21T01:36:45;6.68;;;3.10;;
77736;SDS011;66903;59.926;30.404;2023-11-21T01:41:57;6.00;;;2.45;;
77736;SDS011;66903;59.926;30.404;2023-11-21T01:47:11;5.43;;;2.30;;
77736;SDS011;66903;59.926;30.404;2023-11-21T01:52:23;5.38;;;2.20;;
77736;SDS011;66903;59.926;30.404;2023-11-21T01:57:35;6.18;;;2.17;;
77736;SDS011;66903;59.926;30.404;2023-11-21T02:02:48;6.03;;;2.47;;
77736;SDS011;66903;59.926;30.404;2023-11-21T02:07:59;5.05;;;2.03;;
77736;SDS011;66903;59.926;30.404;2023-11-21T02:13:10;5.53;;;2.10;;
77736;SDS011;66903;59.926;30.404;2023-11-21T02:18:21;4.65;;;2.22;;
77736;SDS011;66903;59.926;30.404;2023-11-21T02:23:32;5.00;;;2.03;;
77736;SDS011;66903;59.926;30.404;2023-11-21T02:28:43;5.28;;;2.10;;
77736;SDS011;66903;59.926;30.404;2023-11-21T02:33:54;4.72;;;2.15;;
77736;SDS011;66903;59.926;30.404;2023-11-21T02:39:05;4.70;;;1.85;;
77736;SDS011;66903;59.926;30.404;2023-11-21T02:44:18;4.85;;;1.95;;
77736;SDS011;66903;59.926;30.404;2023-11-21T02:49:29;5.43;;;2.33;;
77736;SDS011;66903;59.926;30.404;2023-11-21T02:54:39;4.53;;;1.75;;
77736;SDS011;66903;59.926;30.404;2023-11-21T02:59:52;4.90;;;1.73;;
77736;SDS011;66903;59.926;30.404;2023-11-21T03:05:02;3.95;;;1.55;;
77736;SDS011;66903;59.926;30.404;2023-11-21T03:10:15;5.30;;;2.15;;
77736;SDS011;66903;59.926;30.404;2023-11-21T03:15:26;4.97;;;2.20;;
77736;SDS011;66903;59.926;30.404;2023-11-21T03:20:37;5.32;;;1.98;;
77736;SDS011;66903;59.926;30.404;2023-11-21T03:25:47;4.70;;;1.80;;
77736;SDS011;66903;59.926;30.404;2023-11-21T03:30:59;4.10;;;1.73;;
77736;SDS011;66903;59.926;30.404;2023-11-21T03:36:10;4.70;;;1.85;;
77736;SDS011;66903;59.926;30.404;2023-11-21T03:41:20;4.22;;;1.70;;
77736;SDS011;66903;59.926;30.404;2023-11-21T03:46:31;5.57;;;1.63;;
77736;SDS011;66903;59.926;30.404;2023-11-21T03:51:42;4.88;;;1.90;;
77736;SDS011;66903;59.926;30.404;2023-11-21T03:56:53;4.65;;;1.80;;
77736;SDS011;66903;59.926;30.404;2023-11-21T04:02:03;4.10;;;1.48;;
77736;SDS011;66903;59.926;30.404;2023-11-21T04:07:14;6.07;;;2.10;;
77736;SDS011;66903;59.926;30.404;2023-11-21T04:12:25;4.45;;;1.75;;
77736;SDS011;66903;59.926;30.404;2023-11-21T04:17:36;5.03;;;1.60;;
77736;SDS011;66903;59.926;30.404;2023-11-21T04:22:47;18.02;;;2.08;;
77736;SDS011;66903;59.926;30.404;2023-11-21T04:27:57;6.20;;;1.55;;
77736;SDS011;66903;59.926;30.404;2023-11-21T04:33:08;4.10;;;1.67;;
77736;SDS011;66903;59.926;30.404;2023-11-21T04:38:19;7.03;;;1.92;;
77736;SDS011;66903;59.926;30.404;2023-11-21T04:43:30;4.65;;;1.88;;
77736;SDS011;66903;59.926;30.404;2023-11-21T04:48:40;7.75;;;1.58;;
77736;SDS011;66903;59.926;30.404;2023-11-21T04:53:51;5.65;;;1.90;;
77736;SDS011;66903;59.926;30.404;2023-11-21T04:59:02;3.65;;;1.60;;
77736;SDS011;66903;59.926;30.404;2023-11-21T05:04:13;4.30;;;1.52;;
77736;SDS011;66903;59.926;30.404;2023-11-21T05:09:24;4.13;;;1.35;;
77736;SDS011;66903;59.926;30.404;2023-11-21T05:14:35;4.10;;;1.50;;
77736;SDS011;66903;59.926;30.404;2023-11-21T05:19:46;3.78;;;1.40;;
77736;SDS011;66903;59.926;30.404;2023-11-21T05:24:58;3.60;;;1.45;;
77736;SDS011;66903;59.926;30.404;2023-11-21T05:30:09;5.38;;;1.70;;
77736;SDS011;66903;59.926;30.404;2023-11-21T05:35:22;3.97;;;1.52;;
77736;SDS011;66903;59.926;30.404;2023-11-21T05:40:33;4.65;;;1.50;;
77736;SDS011;66903;59.926;30.404;2023-11-21T05:45:44;9.40;;;1.73;;
77736;SDS011;66903;59.926;30.404;2023-11-21T05:50:55;3.63;;;1.38;;
77736;SDS011;66903;59.926;30.404;2023-11-21T05:56:05;4.60;;;1.60;;
77736;SDS011;66903;59.926;30.404;2023-11-21T06:01:17;3.72;;;1.40;;
77736;SDS011;66903;59.926;30.404;2023-11-21T06:06:28;5.03;;;1.63;;
77736;SDS011;66903;59.926;30.404;2023-11-21T06:11:39;5.35;;;1.50;;
77736;SDS011;66903;59.926;30.404;2023-11-21T06:16:49;4.68;;;1.85;;
77736;SDS011;66903;59.926;30.404;2023-11-21T06:22:01;4.22;;;1.60;;
77736;SDS011;66903;59.926;30.404;2023-11-21T06:27:12;4.70;;;1.70;;
77736;SDS011;66903;59.926;30.404;2023-11-21T06:32:22;3.78;;;1.42;;
77736;SDS011;66903;59.926;30.404;2023-11-21T06:37:33;3.78;;;1.60;;
77736;SDS011;66903;59.926;30.404;2023-11-21T06:42:44;4.13;;;1.52;;
77736;SDS011;66903;59.926;30.404;2023-11-21T06:47:55;4.13;;;1.50;;
77736;SDS011;66903;59.926;30.404;2023-11-21T06:53:05;3.70;;;1.38;;
77736;SDS011;66903;59.926;30.404;2023-11-21T06:58:17;4.65;;;1.58;;
77736;SDS011;66903;59.926;30.404;2023-11-21T07:03:28;4.50;;;1.73;;
77736;SDS011;66903;59.926;30.404;2023-11-21T07:08:39;3.95;;;1.52;;
77736;SDS011;66903;59.926;30.404;2023-11-21T07:13:50;4.13;;;1.45;;
77736;SDS011;66903;59.926;30.404;2023-11-21T07:19:05;3.13;;;1.23;;
77736;SDS011;66903;59.926;30.404;2023-11-21T07:24:17;4.57;;;1.45;;
77736;SDS011;66903;59.926;30.404;2023-11-21T07:29:28;2.80;;;1.00;;
77736;SDS011;66903;59.926;30.404;2023-11-21T07:34:41;3.40;;;1.30;;
77736;SDS011;66903;59.926;30.404;2023-11-21T07:39:52;4.95;;;1.50;;
77736;SDS011;66903;59.926;30.404;2023-11-21T07:45:06;4.18;;;1.38;;
77736;SDS011;66903;59.926;30.404;2023-11-21T07:50:17;2.92;;;1.02;;
77736;SDS011;66903;59.926;30.404;2023-11-21T07:55:28;3.80;;;1.17;;
77736;SDS011;66903;59.926;30.404;2023-11-21T08:00:42;3.38;;;1.00;;
77736;SDS011;66903;59.926;30.404;2023-11-21T08:05:53;3.25;;;1.08;;
77736;SDS011;66903;59.926;30.404;2023-11-21T08:11:04;4.53;;;1.17;;
77736;SDS011;66903;59.926;30.404;2023-11-21T08:16:15;3.53;;;1.15;;
77736;SDS011;66903;59.926;30.404;2023-11-21T08:21:27;3.47;;;1.30;;
77736;SDS011;66903;59.926;30.404;2023-11-21T08:26:39;2.28;;;0.85;;
77736;SDS011;66903;59.926;30.404;2023-11-21T08:31:50;2.47;;;0.88;;
77736;SDS011;66903;59.926;30.404;2023-11-21T08:37:00;3.50;;;1.13;;
77736;SDS011;66903;59.926;30.404;2023-11-21T08:42:11;3.65;;;1.40;;
77736;SDS011;66903;59.926;30.404;2023-11-21T08:47:22;5.88;;;1.02;;
77736;SDS011;66903;59.926;30.404;2023-11-21T08:52:34;3.78;;;1.10;;
77736;SDS011;66903;59.926;30.404;2023-11-21T08:57:47;2.42;;;0.93;;
77736;SDS011;66903;59.926;30.404;2023-11-21T09:02:58;2.80;;;1.20;;
77736;SDS011;66903;59.926;30.404;2023-11-21T09:08:08;3.13;;;1.15;;
77736;SDS011;66903;59.926;30.404;2023-11-21T09:13:19;3.00;;;0.93;;
77736;SDS011;66903;59.926;30.404;2023-11-21T09:18:30;2.40;;;0.73;;
77736;SDS011;66903;59.926;30.404;2023-11-21T09:23:42;4.75;;;0.90;;
77736;SDS011;66903;59.926;30.404;2023-11-21T09:28:54;3.05;;;0.88;;
77736;SDS011;66903;59.926;30.404;2023-11-21T09:34:06;3.38;;;1.00;;
77736;SDS011;66903;59.926;30.404;2023-11-21T09:39:17;2.63;;;0.80;;
77736;SDS011;66903;59.926;30.404;2023-11-21T09:49:49;2.72;;;0.82;;
77736;SDS011;66903;59.926;30.404;2023-11-21T09:55:00;3.13;;;0.90;;
77736;SDS011;66903;59.926;30.404;2023-11-21T10:00:14;7.07;;;0.82;;
77736;SDS011;66903;59.926;30.404;2023-11-21T10:05:28;3.08;;;0.90;;
77736;SDS011;66903;59.926;30.404;2023-11-21T10:10:42;2.17;;;0.70;;
77736;SDS011;66903;59.926;30.404;2023-11-21T10:16:00;2.78;;;0.90;;
77736;SDS011;66903;59.926;30.404;2023-11-21T10:21:15;2.50;;;0.90;;
77736;SDS011;66903;59.926;30.404;2023-11-21T10:26:27;3.53;;;0.90;;
77736;SDS011;66903;59.926;30.404;2023-11-21T10:31:38;2.97;;;1.20;;
77736;SDS011;66903;59.926;30.404;2023-11-21T10:36:49;2.72;;;1.00;;
77736;SDS011;66903;59.926;30.404;2023-11-21T10:42:00;3.53;;;1.10;;
77736;SDS011;66903;59.926;30.404;2023-11-21T10:47:11;4.47;;;0.90;;
77736;SDS011;66903;59.926;30.404;2023-11-21T10:52:22;1.83;;;0.70;;
77736;SDS011;66903;59.926;30.404;2023-11-21T10:57:37;2.75;;;0.88;;
77736;SDS011;66903;59.926;30.404;2023-11-21T11:02:50;3.20;;;0.88;;
77736;SDS011;66903;59.926;30.404;2023-11-21T11:08:04;4.05;;;1.20;;
77736;SDS011;66903;59.926;30.404;2023-11-21T11:13:16;3.50;;;1.00;;
77736;SDS011;66903;59.926;30.404;2023-11-21T11:18:30;2.25;;;0.80;;
77736;SDS011;66903;59.926;30.404;2023-11-21T11:29:23;3.50;;;1.10;;
77736;SDS011;66903;59.926;30.404;2023-11-21T11:34:50;2.38;;;0.80;;
77736;SDS011;66903;59.926;30.404;2023-11-21T11:40:12;2.17;;;0.80;;
77736;SDS011;66903;59.926;30.404;2023-11-21T11:45:23;4.25;;;1.23;;
77736;SDS011;66903;59.926;30.404;2023-11-21T11:51:04;3.47;;;1.20;;
77736;SDS011;66903;59.926;30.404;2023-11-21T11:56:28;3.03;;;0.93;;
77736;SDS011;66903;59.926;30.404;2023-11-21T12:01:44;3.13;;;1.00;;
77736;SDS011;66903;59.926;30.404;2023-11-21T12:06:57;4.00;;;1.13;;
77736;SDS011;66903;59.926;30.404;2023-11-21T12:12:13;2.88;;;1.00;;
77736;SDS011;66903;59.926;30.404;2023-11-21T12:17:27;2.75;;;0.90;;
77736;SDS011;66903;59.926;30.404;2023-11-21T12:22:38;2.95;;;0.98;;
77736;SDS011;66903;59.926;30.404;2023-11-21T12:27:52;2.13;;;0.90;;
77736;SDS011;66903;59.926;30.404;2023-11-21T12:33:03;3.40;;;0.80;;
77736;SDS011;66903;59.926;30.404;2023-11-21T12:38:16;2.72;;;0.85;;
77736;SDS011;66903;59.926;30.404;2023-11-21T12:43:29;2.95;;;0.88;;
77736;SDS011;66903;59.926;30.404;2023-11-21T12:48:41;2.47;;;0.80;;
77736;SDS011;66903;59.926;30.404;2023-11-21T12:53:55;2.63;;;0.65;;
77736;SDS011;66903;59.926;30.404;2023-11-21T12:59:06;1.92;;;0.70;;
77736;SDS011;66903;59.926;30.404;2023-11-21T13:04:17;5.03;;;0.98;;
77736;SDS011;66903;59.926;30.404;2023-11-21T13:09:28;2.22;;;0.73;;
77736;SDS011;66903;59.926;30.404;2023-11-21T13:14:39;2.85;;;0.90;;
77736;SDS011;66903;59.926;30.404;2023-11-21T13:19:50;3.03;;;0.70;;
77736;SDS011;66903;59.926;30.404;2023-11-21T13:25:01;2.15;;;0.70;;
77736;SDS011;66903;59.926;30.404;2023-11-21T13:30:17;2.15;;;0.70;;
77736;SDS011;66903;59.926;30.404;2023-11-21T13:35:33;3.03;;;0.90;;
77736;SDS011;66903;59.926;30.404;2023-11-21T13:40:49;2.38;;;0.80;;
77736;SDS011;66903;59.926;30.404;2023-11-21T13:46:03;6.60;;;1.90;;
77736;SDS011;66903;59.926;30.404;2023-11-21T13:51:23;2.40;;;0.63;;
77736;SDS011;66903;59.926;30.404;2023-11-21T13:56:49;1.92;;;0.70;;
77736;SDS011;66903;59.926;30.404;2023-11-21T14:02:01;4.90;;;0.90;;
77736;SDS011;66903;59.926;30.404;2023-11-21T14:07:26;1.77;;;0.60;;
77736;SDS011;66903;59.926;30.404;2023-11-21T14:12:45;5.78;;;1.20;;
77736;SDS011;66903;59.926;30.404;2023-11-21T14:17:57;6.00;;;1.02;;
77736;SDS011;66903;59.926;30.404;2023-11-21T14:23:08;2.63;;;0.60;;
77736;SDS011;66903;59.926;30.404;2023-11-21T14:28:20;4.18;;;1.00;;
77736;SDS011;66903;59.926;30.404;2023-11-21T14:33:31;2.60;;;0.73;;
77736;SDS011;66903;59.926;30.404;2023-11-21T14:38:42;3.85;;;0.68;;
77736;SDS011;66903;59.926;30.404;2023-11-21T14:43:55;3.40;;;0.90;;
77736;SDS011;66903;59.926;30.404;2023-11-21T14:49:07;2.70;;;0.77;;
77736;SDS011;66903;59.926;30.404;2023-11-21T14:54:30;2.83;;;0.70;;
77736;SDS011;66903;59.926;30.404;2023-11-21T14:59:50;2.08;;;0.70;;
77736;SDS011;66903;59.926;30.404;2023-11-21T15:05:02;5.05;;;0.70;;
77736;SDS011;66903;59.926;30.404;2023-11-21T15:10:13;0.90;;;0.35;;
77736;SDS011;66903;59.926;30.404;2023-11-21T15:15:30;1.95;;;0.70;;
77736;SDS011;66903;59.926;30.404;2023-11-21T15:20:44;3.05;;;0.90;;
77736;SDS011;66903;59.926;30.404;2023-11-21T15:25:55;1.20;;;0.52;;
77736;SDS011;66903;59.926;30.404;2023-11-21T15:31:06;2.70;;;0.80;;
77736;SDS011;66903;59.926;30.404;2023-11-21T15:36:18;1.92;;;0.60;;
77736;SDS011;66903;59.926;30.404;2023-11-21T15:41:29;2.28;;;0.70;;
77736;SDS011;66903;59.926;30.404;2023-11-21T15:46:40;2.10;;;0.60;;
77736;SDS011;66903;59.926;30.404;2023-11-21T15:51:52;1.38;;;0.47;;
77736;SDS011;66903;59.926;30.404;2023-11-21T15:57:03;1.90;;;0.65;;
77736;SDS011;66903;59.926;30.404;2023-11-21T16:02:14;4.68;;;0.88;;
77736;SDS011;66903;59.926;30.404;2023-11-21T16:07:26;2.35;;;0.70;;
77736;SDS011;66903;59.926;30.404;2023-11-21T16:12:38;5.85;;;0.70;;
77736;SDS011;66903;59.926;30.404;2023-11-21T16:17:50;2.30;;;0.60;;
77736;SDS011;66903;59.926;30.404;2023-11-21T16:23:01;2.45;;;0.60;;
77736;SDS011;66903;59.926;30.404;2023-11-21T16:28:12;4.90;;;0.77;;
77736;SDS011;66903;59.926;30.404;2023-11-21T16:33:23;3.00;;;0.70;;
77736;SDS011;66903;59.926;30.404;2023-11-21T16:38:34;2.20;;;0.70;;
77736;SDS011;66903;59.926;30.404;2023-11-21T16:43:45;3.50;;;0.70;;
77736;SDS011;66903;59.926;30.404;2023-11-21T16:48:56;2.40;;;0.90;;
77736;SDS011;66903;59.926;30.404;2023-11-21T16:54:07;2.75;;;0.65;;
77736;SDS011;66903;59.926;30.404;2023-11-21T16:59:18;2.40;;;0.60;;
77736;SDS011;66903;59.926;30.404;2023-11-21T17:04:30;1.40;;;0.45;;
77736;SDS011;66903;59.926;30.404;2023-11-21T17:09:42;2.20;;;0.63;;
77736;SDS011;66903;59.926;30.404;2023-11-21T17:14:53;1.48;;;0.50;;
77736;SDS011;66903;59.926;30.404;2023-11-21T17:20:04;2.78;;;0.80;;
77736;SDS011;66903;59.926;30.404;2023-11-21T17:25:19;1.35;;;0.47;;
77736;SDS011;66903;59.926;30.404;2023-11-21T17:30:29;3.03;;;0.60;;
77736;SDS011;66903;59.926;30.404;2023-11-21T17:35:41;4.25;;;0.80;;
77736;SDS011;66903;59.926;30.404;2023-11-21T17:40:53;2.35;;;0.65;;
77736;SDS011;66903;59.926;30.404;2023-11-21T17:46:04;1.48;;;0.57;;
77736;SDS011;66903;59.926;30.404;2023-11-21T17:51:15;1.23;;;0.50;;
77736;SDS011;66903;59.926;30.404;2023-11-21T17:56:26;6.60;;;0.63;;
77736;SDS011;66903;59.926;30.404;2023-11-21T18:01:37;2.85;;;0.45;;
77736;SDS011;66903;59.926;30.404;2023-11-21T18:06:49;3.33;;;0.60;;
77736;SDS011;66903;59.926;30.404;2023-11-21T18:12:00;1.35;;;0.55;;
77736;SDS011;66903;59.926;30.404;2023-11-21T18:17:14;1.88;;;0.60;;
77736;SDS011;66903;59.926;30.404;2023-11-21T18:22:27;1.40;;;0.60;;
77736;SDS011;66903;59.926;30.404;2023-11-21T18:27:38;1.67;;;0.60;;
77736;SDS011;66903;59.926;30.404;2023-11-21T18:32:49;1.45;;;0.50;;
77736;SDS011;66903;59.926;30.404;2023-11-21T18:37:59;2.25;;;0.70;;
77736;SDS011;66903;59.926;30.404;2023-11-21T18:43:10;3.75;;;0.52;;
77736;SDS011;66903;59.926;30.404;2023-11-21T18:48:22;2.97;;;0.70;;
77736;SDS011;66903;59.926;30.404;2023-11-21T18:53:33;1.63;;;0.50;;
77736;SDS011;66903;59.926;30.404;2023-11-21T18:58:45;8.05;;;0.82;;
77736;SDS011;66903;59.926;30.404;2023-11-21T19:03:56;1.45;;;0.50;;
77736;SDS011;66903;59.926;30.404;2023-11-21T19:09:10;2.67;;;0.80;;
77736;SDS011;66903;59.926;30.404;2023-11-21T19:14:22;5.13;;;0.75;;
77736;SDS011;66903;59.926;30.404;2023-11-21T19:19:33;5.50;;;1.08;;
77736;SDS011;66903;59.926;30.404;2023-11-21T19:24:44;6.43;;;1.40;;
77736;SDS011;66903;59.926;30.404;2023-11-21T19:29:54;2.83;;;0.90;;
77736;SDS011;66903;59.926;30.404;2023-11-21T19:35:05;3.50;;;0.98;;
77736;SDS011;66903;59.926;30.404;2023-11-21T19:40:18;2.30;;;0.75;;
77736;SDS011;66903;59.926;30.404;2023-11-21T19:45:33;5.93;;;0.93;;
77736;SDS011;66903;59.926;30.404;2023-11-21T19:50:44;2.97;;;1.02;;
77736;SDS011;66903;59.926;30.404;2023-11-21T19:55:55;2.63;;;0.82;;
77736;SDS011;66903;59.926;30.404;2023-11-21T20:01:06;5.60;;;1.40;;
77736;SDS011;66903;59.926;30.404;2023-11-21T20:06:17;3.38;;;0.90;;
77736;SDS011;66903;59.926;30.404;2023-11-21T20:11:29;3.92;;;0.63;;
77736;SDS011;66903;59.926;30.404;2023-11-21T20:16:42;2.38;;;0.90;;
77736;SDS011;66903;59.926;30.404;2023-11-21T20:21:52;1.88;;;0.60;;
77736;SDS011;66903;59.926;30.404;2023-11-21T20:27:04;2.97;;;0.93;;
77736;SDS011;66903;59.926;30.404;2023-11-21T20:37:27;2.13;;;0.70;;
77736;SDS011;66903;59.926;30.404;2023-11-21T20:42:37;3.70;;;1.00;;
77736;SDS011;66903;59.926;30.404;2023-11-21T20:47:52;2.90;;;1.08;;
77736;SDS011;66903;59.926;30.404;2023-11-21T20:53:03;1.80;;;0.60;;
77736;SDS011;66903;59.926;30.404;2023-11-21T20:58:18;2.92;;;0.80;;
77736;SDS011;66903;59.926;30.404;2023-11-21T21:03:28;5.40;;;0.98;;
77736;SDS011;66903;59.926;30.404;2023-11-21T21:08:39;2.92;;;0.85;;
77736;SDS011;66903;59.926;30.404;2023-11-21T21:13:50;3.08;;;1.00;;
77736;SDS011;66903;59.926;30.404;2023-11-21T21:19:03;2.67;;;0.93;;
77736;SDS011;66903;59.926;30.404;2023-11-21T21:24:14;3.22;;;1.20;;
77736;SDS011;66903;59.926;30.404;2023-11-21T21:29:25;4.70;;;1.50;;
77736;SDS011;66903;59.926;30.404;2023-11-21T21:34:36;3.05;;;0.85;;
77736;SDS011;66903;59.926;30.404;2023-11-21T21:39:52;6.68;;;1.00;;
77736;SDS011;66903;59.926;30.404;2023-11-21T21:45:05;2.47;;;0.60;;
77736;SDS011;66903;59.926;30.404;2023-11-21T21:50:17;3.22;;;1.00;;
77736;SDS011;66903;59.926;30.404;2023-11-21T21:55:29;3.40;;;0.93;;
77736;SDS011;66903;59.926;30.404;2023-11-21T22:00:40;3.10;;;0.90;;
77736;SDS011;66903;59.926;30.404;2023-11-21T22:05:52;1.83;;;0.68;;
77736;SDS011;66903;59.926;30.404;2023-11-21T22:11:03;2.90;;;0.98;;
77736;SDS011;66903;59.926;30.404;2023-11-21T22:16:15;2.45;;;0.85;;
77736;SDS011;66903;59.926;30.404;2023-11-21T22:21:27;2.50;;;0.75;;
77736;SDS011;66903;59.926;30.404;2023-11-21T22:26:38;2.47;;;0.85;;
77736;SDS011;66903;59.926;30.404;2023-11-21T22:31:49;2.13;;;0.68;;
77736;SDS011;66903;59.926;30.404;2023-11-21T22:37:00;2.10;;;0.80;;
77736;SDS011;66903;59.926;30.404;2023-11-21T22:42:11;2.78;;;0.90;;
77736;SDS011;66903;59.926;30.404;2023-11-21T22:47:22;2.92;;;1.00;;
77736;SDS011;66903;59.926;30.404;2023-11-21T22:52:33;2.53;;;0.88;;
77736;SDS011;66903;59.926;30.404;2023-11-21T22:57:44;2.03;;;0.75;;
77736;SDS011;66903;59.926;30.404;2023-11-21T23:02:56;2.10;;;0.70;;
77736;SDS011;66903;59.926;30.404;2023-11-21T23:08:07;2.25;;;0.93;;
77736;SDS011;66903;59.926;30.404;2023-11-21T23:13:19;2.55;;;0.70;;
77736;SDS011;66903;59.926;30.404;2023-11-21T23:18:29;3.03;;;1.00;;
77736;SDS011;66903;59.926;30.404;2023-11-21T23:23:40;2.05;;;0.75;;
77736;SDS011;66903;59.926;30.404;2023-11-21T23:28:51;2.58;;;0.82;;
77736;SDS011;66903;59.926;30.404;2023-11-21T23:34:02;3.28;;;1.08;;
77736;SDS011;66903;59.926;30.404;2023-11-21T23:39:14;4.03;;;1.08;;
77736;SDS011;66903;59.926;30.404;2023-11-21T23:44:25;3.30;;;1.05;;
77736;SDS011;66903;59.926;30.404;2023-11-21T23:49:38;4.03;;;1.17;;
77736;SDS011;66903;59.926;30.404;2023-11-21T23:54:48;2.65;;;0.90;;
77736;SDS011;66903;59.926;30.404;2023-11-21T23:59:59;2.83;;;0.85;;
